createdAt,value
2023-04-01T00:00:57.621Z,4.40
2023-04-01T00:03:45.225Z,5.30
2023-04-01T00:06:31.648Z,4.00
2023-04-01T00:09:18.505Z,4.70
2023-04-01T00:12:08.635Z,5.10
2023-04-01T00:14:55.193Z,3.00
2023-04-01T00:17:41.651Z,4.50
2023-04-01T00:20:29.343Z,5.40
2023-04-01T00:23:17.014Z,6.40
2023-04-01T00:26:04.593Z,4.70
2023-04-01T00:28:51.634Z,4.90
2023-04-01T00:31:38.164Z,5.00
2023-04-01T00:34:24.479Z,4.80
2023-04-01T00:37:11.836Z,4.10
2023-04-01T00:39:58.335Z,4.60
2023-04-01T00:42:45.040Z,3.80
2023-04-01T00:45:35.459Z,2.20
2023-04-01T00:48:46.971Z,3.40
2023-04-01T00:51:35.909Z,3.20
2023-04-01T00:54:25.775Z,2.90
2023-04-01T00:57:41.500Z,3.90
2023-04-01T01:00:28.227Z,3.10
2023-04-01T01:03:15.127Z,3.70
2023-04-01T01:06:27.715Z,3.60
2023-04-01T01:15:33.696Z,3.20
2023-04-01T01:18:55.055Z,1.60
2023-04-01T01:22:05.387Z,3.60
2023-04-01T01:25:22.159Z,3.50
2023-04-01T01:31:39.827Z,4.00
2023-04-01T01:35:10.704Z,2.80
2023-04-01T01:38:13.993Z,2.90
2023-04-01T01:41:06.949Z,3.10
2023-04-01T01:43:57.367Z,3.30
2023-04-01T01:46:45.833Z,3.50
2023-04-01T01:49:36.027Z,3.60
2023-04-01T01:52:24.798Z,2.90
2023-04-01T01:55:31.262Z,4.00
2023-04-01T01:58:40.740Z,4.10
2023-04-01T02:01:34.202Z,4.40
2023-04-01T02:04:27.606Z,4.20
2023-04-01T02:07:25.544Z,2.70
2023-04-01T02:10:12.384Z,3.70
2023-04-01T02:13:07.093Z,3.10
2023-04-01T02:15:57.630Z,4.00
2023-04-01T02:18:48.665Z,3.60
2023-04-01T02:21:37.552Z,3.30
2023-04-01T02:24:27.306Z,3.00
2023-04-01T02:30:00.409Z,3.40
2023-04-01T02:32:47.721Z,3.10
2023-04-01T02:35:37.697Z,3.30
2023-04-01T02:43:59.845Z,2.70
2023-04-01T02:46:47.203Z,2.70
2023-04-01T02:49:33.732Z,2.80
2023-04-01T02:52:20.549Z,3.10
2023-04-01T02:55:08.133Z,2.90
2023-04-01T02:57:55.654Z,2.70
2023-04-01T03:00:51.027Z,2.70
2023-04-01T03:03:41.186Z,2.40
2023-04-01T03:06:27.713Z,2.70
2023-04-01T03:09:14.864Z,2.50
2023-04-01T03:12:01.479Z,3.20
2023-04-01T03:14:53.703Z,2.60
2023-04-01T03:17:41.698Z,3.00
2023-04-01T03:20:28.521Z,3.20
2023-04-01T03:23:17.686Z,3.10
2023-04-01T03:26:04.063Z,3.60
2023-04-01T03:28:55.944Z,3.10
2023-04-01T03:31:42.758Z,2.60
2023-04-01T03:34:29.663Z,3.00
2023-04-01T03:37:16.455Z,2.90
2023-04-01T03:40:03.301Z,3.60
2023-04-01T03:42:51.078Z,3.20
2023-04-01T03:54:04.134Z,3.10
2023-04-01T04:02:25.889Z,3.10
2023-04-01T04:05:13.921Z,3.00
2023-04-01T04:10:46.826Z,3.70
2023-04-01T04:13:34.226Z,3.20
2023-04-01T04:16:21.355Z,3.60
2023-04-01T04:19:13.444Z,3.60
2023-04-01T04:22:01.782Z,3.80
2023-04-01T04:24:48.629Z,3.20
2023-04-01T04:27:35.602Z,2.80
2023-04-01T04:32:33.920Z,3.60
2023-04-01T04:35:22.184Z,3.40
2023-04-01T04:38:10.596Z,3.40
2023-04-01T04:40:59.681Z,3.20
2023-04-01T04:43:57.161Z,2.90
2023-04-01T04:46:46.087Z,2.50
2023-04-01T04:49:35.762Z,2.80
2023-04-01T04:52:27.526Z,3.10
2023-04-01T04:55:16.356Z,2.50
2023-04-01T04:58:06.228Z,3.00
2023-04-01T05:00:54.992Z,3.10
2023-04-01T05:03:50.126Z,2.80
2023-04-01T05:06:38.511Z,2.80
2023-04-01T05:09:26.837Z,2.60
2023-04-01T05:12:16.737Z,3.00
2023-04-01T05:15:22.188Z,3.30
2023-04-01T05:18:10.784Z,3.00
2023-04-01T05:20:59.482Z,3.30
2023-04-01T05:23:47.630Z,2.80
2023-04-01T05:26:36.317Z,2.40
2023-04-01T05:29:26.803Z,2.70
2023-04-01T05:32:26.469Z,2.40
2023-04-01T05:35:15.168Z,2.70
2023-04-01T05:38:04.375Z,2.20
2023-04-01T05:41:00.501Z,2.30
2023-04-01T05:43:49.051Z,2.30
2023-04-01T05:46:57.501Z,2.50
2023-04-01T05:49:47.460Z,2.10
2023-04-01T05:52:36.221Z,2.20
2023-04-01T05:55:24.494Z,2.20
2023-04-01T05:58:13.373Z,2.00
2023-04-01T06:01:10.379Z,2.40
2023-04-01T06:04:03.810Z,2.00
2023-04-01T06:06:53.140Z,1.50
2023-04-01T06:09:42.491Z,1.60
2023-04-01T06:13:12.220Z,1.70
2023-04-01T06:16:51.848Z,1.80
2023-04-01T06:19:48.142Z,2.00
2023-04-01T06:23:21.088Z,1.80
2023-04-01T06:26:36.099Z,1.90
2023-04-01T06:30:01.287Z,1.90
2023-04-01T06:33:16.903Z,2.30
2023-04-01T06:36:57.881Z,3.00
2023-04-01T06:40:24.520Z,2.50
2023-04-01T06:44:06.471Z,2.50
2023-04-01T06:48:00.234Z,2.20
2023-04-01T06:51:51.677Z,2.20
2023-04-01T06:55:41.788Z,1.80
2023-04-01T06:58:47.672Z,2.20
2023-04-01T07:01:45.516Z,1.80
2023-04-01T07:04:44.502Z,1.90
2023-04-01T07:07:49.647Z,1.70
2023-04-01T07:11:03.322Z,1.90
2023-04-01T07:14:32.116Z,2.30
2023-04-01T07:17:35.512Z,2.10
2023-04-01T07:20:32.691Z,2.20
2023-04-01T07:23:34.038Z,2.20
2023-04-01T07:26:31.759Z,2.20
2023-04-01T07:29:34.531Z,2.10
2023-04-01T07:32:51.413Z,2.20
2023-04-01T07:35:46.195Z,2.20
2023-04-01T07:38:54.269Z,2.00
2023-04-01T07:42:20.599Z,1.90
2023-04-01T07:45:43.382Z,2.10
2023-04-01T07:49:21.606Z,2.00
2023-04-01T07:53:03.158Z,2.40
2023-04-01T07:56:11.577Z,1.70
2023-04-01T07:59:10.883Z,2.10
2023-04-01T08:02:49.352Z,1.80
2023-04-01T08:06:02.214Z,1.70
2023-04-01T08:09:00.102Z,1.70
2023-04-01T08:12:30.638Z,1.50
2023-04-01T08:16:14.232Z,1.60
2023-04-01T08:20:02.560Z,1.80
2023-04-01T08:23:13.684Z,2.00
2023-04-01T08:26:30.895Z,2.10
2023-04-01T08:29:25.501Z,2.00
2023-04-01T08:32:29.830Z,2.10
2023-04-01T08:35:39.576Z,1.90
2023-04-01T08:38:34.775Z,2.30
2023-04-01T08:41:26.484Z,2.30
2023-04-01T08:45:12.013Z,2.10
2023-04-01T08:48:36.677Z,2.00
2023-04-01T08:51:50.278Z,1.80
2023-04-01T08:55:28.796Z,3.20
2023-04-01T08:58:54.257Z,1.70
2023-04-01T09:02:36.969Z,2.00
2023-04-01T09:06:08.643Z,2.30
2023-04-01T09:08:59.973Z,1.60
2023-04-01T09:12:16.265Z,1.70
2023-04-01T09:15:31.696Z,1.40
2023-04-01T09:19:01.056Z,1.50
2023-04-01T09:22:11.214Z,1.70
2023-04-01T09:25:53.987Z,1.60
2023-04-01T09:29:17.658Z,1.50
2023-04-01T09:32:38.021Z,1.40
2023-04-01T09:35:54.155Z,1.60
2023-04-01T09:38:57.533Z,1.60
2023-04-01T09:41:56.726Z,1.40
2023-04-01T09:45:16.814Z,1.40
2023-04-01T09:48:20.419Z,1.40
2023-04-01T09:51:42.787Z,1.40
2023-04-01T09:55:24.342Z,1.60
2023-04-01T09:58:32.783Z,2.00
2023-04-01T10:02:15.411Z,1.50
2023-04-01T10:05:36.335Z,10.20
2023-04-01T10:09:11.256Z,1.70
2023-04-01T10:12:21.940Z,1.80
2023-04-01T10:15:34.784Z,1.80
2023-04-01T10:19:17.975Z,2.00
2023-04-01T10:22:36.977Z,1.70
2023-04-01T10:25:43.998Z,1.80
2023-04-01T10:28:55.644Z,1.50
2023-04-01T10:32:18.889Z,1.70
2023-04-01T10:35:40.786Z,2.00
2023-04-01T10:38:56.547Z,1.90
2023-04-01T10:42:26.760Z,1.80
2023-04-01T10:45:50.854Z,1.80
2023-04-01T10:49:21.583Z,2.00
2023-04-01T10:52:47.432Z,1.50
2023-04-01T10:56:41.485Z,1.30
2023-04-01T11:00:31.074Z,1.60
2023-04-01T11:04:25.814Z,1.90
2023-04-01T11:08:20.736Z,1.50
2023-04-01T11:11:37.026Z,1.40
2023-04-01T11:14:43.395Z,1.40
2023-04-01T11:17:53.849Z,1.30
2023-04-01T11:21:31.448Z,1.70
2023-04-01T11:25:06.695Z,1.30
2023-04-01T11:28:11.248Z,1.70
2023-04-01T11:32:06.439Z,1.40
2023-04-01T11:35:41.271Z,1.40
2023-04-01T11:39:21.768Z,1.60
2023-04-01T11:43:19.989Z,1.30
2023-04-01T11:47:30.099Z,1.50
2023-04-01T11:51:12.871Z,1.50
2023-04-01T11:54:49.668Z,1.50
2023-04-01T11:58:23.741Z,1.60
2023-04-01T12:01:43.538Z,1.30
2023-04-01T12:05:09.587Z,1.60
2023-04-01T12:08:23.938Z,1.20
2023-04-01T12:11:36.569Z,2.10
2023-04-01T12:15:01.833Z,1.60
2023-04-01T12:17:59.408Z,1.70
2023-04-01T12:21:07.501Z,1.60
2023-04-01T12:24:26.979Z,1.90
2023-04-01T12:27:20.585Z,2.00
2023-04-01T12:30:37.152Z,2.40
2023-04-01T12:33:49.333Z,2.30
2023-04-01T12:37:09.848Z,1.90
2023-04-01T12:40:04.759Z,1.60
2023-04-01T12:43:28.868Z,1.60
2023-04-01T12:46:51.834Z,1.90
2023-04-01T12:50:23.214Z,1.50
2023-04-01T12:53:45.653Z,1.90
2023-04-01T12:56:52.782Z,1.20
2023-04-01T13:00:24.498Z,1.60
2023-04-01T13:03:23.704Z,1.40
2023-04-01T13:06:42.347Z,1.60
2023-04-01T13:10:08.261Z,1.60
2023-04-01T13:13:24.776Z,1.80
2023-04-01T13:16:52.178Z,1.30
2023-04-01T13:20:06.536Z,1.70
2023-04-01T13:23:16.733Z,1.30
2023-04-01T13:26:35.736Z,1.40
2023-04-01T13:29:37.234Z,1.70
2023-04-01T13:32:52.630Z,1.60
2023-04-01T13:36:06.332Z,2.10
2023-04-01T13:39:22.476Z,2.10
2023-04-01T13:42:37.206Z,1.60
2023-04-01T13:45:53.469Z,4.00
2023-04-01T13:48:56.987Z,2.60
2023-04-01T13:52:21.280Z,2.40
2023-04-01T13:55:33.072Z,2.10
2023-04-01T13:58:39.397Z,1.80
2023-04-01T14:02:18.469Z,2.10
2023-04-01T14:05:57.705Z,2.20
2023-04-01T14:08:51.286Z,2.30
2023-04-01T14:11:59.455Z,2.60
2023-04-01T14:15:22.820Z,2.60
2023-04-01T14:19:06.474Z,2.20
2023-04-01T14:22:13.488Z,2.50
2023-04-01T14:25:37.055Z,2.50
2023-04-01T14:29:15.599Z,2.20
2023-04-01T14:32:39.204Z,3.20
2023-04-01T14:35:37.334Z,2.30
2023-04-01T14:38:56.307Z,3.00
2023-04-01T14:42:29.827Z,3.20
2023-04-01T14:45:56.394Z,3.20
2023-04-01T14:48:44.916Z,3.90
2023-04-01T14:51:42.424Z,3.90
2023-04-01T14:54:45.214Z,3.60
2023-04-01T14:57:36.223Z,4.20
2023-04-01T15:00:26.307Z,4.30
2023-04-01T15:03:27.264Z,5.60
2023-04-01T15:06:39.832Z,5.40
2023-04-01T15:09:58.518Z,3.80
2023-04-01T15:13:16.386Z,3.60
2023-04-01T15:17:16.048Z,4.80
2023-04-01T15:20:27.282Z,4.20
2023-04-01T15:24:00.221Z,4.60
2023-04-01T15:27:14.001Z,4.10
2023-04-01T15:30:46.072Z,3.70
2023-04-01T15:33:51.398Z,4.50
2023-04-01T15:37:46.624Z,4.00
2023-04-01T15:41:03.493Z,4.50
2023-04-01T15:43:53.486Z,4.90
2023-04-01T15:46:49.114Z,4.30
2023-04-01T15:49:48.451Z,4.20
2023-04-01T15:53:07.929Z,4.00
2023-04-01T15:56:45.526Z,4.00
2023-04-01T16:00:15.875Z,4.00
2023-04-01T16:03:35.453Z,3.50
2023-04-01T16:06:44.897Z,4.10
2023-04-01T16:10:11.190Z,4.90
2023-04-01T16:13:44.107Z,5.10
2023-04-01T16:17:14.064Z,3.90
2023-04-01T16:20:11.391Z,3.90
2023-04-01T16:23:02.901Z,5.00
2023-04-01T16:26:31.469Z,4.10
2023-04-01T16:29:41.661Z,3.80
2023-04-01T16:32:42.836Z,3.80
2023-04-01T16:36:08.012Z,3.80
2023-04-01T16:39:19.538Z,4.40
2023-04-01T16:43:06.985Z,4.10
2023-04-01T16:46:07.141Z,4.10
2023-04-01T16:49:13.928Z,3.60
2023-04-01T16:52:12.042Z,4.00
2023-04-01T16:55:13.902Z,3.50
2023-04-01T16:58:02.772Z,3.90
2023-04-01T17:01:02.091Z,5.70
2023-04-01T17:04:41.408Z,3.80
2023-04-01T17:08:09.279Z,3.90
2023-04-01T17:11:29.269Z,3.80
2023-04-01T17:14:58.783Z,4.20
2023-04-01T17:18:20.232Z,3.70
2023-04-01T17:21:26.078Z,4.20
2023-04-01T17:24:57.915Z,3.40
2023-04-01T17:27:49.040Z,3.20
2023-04-01T17:30:54.645Z,3.50
2023-04-01T17:34:18.171Z,3.60
2023-04-01T17:37:39.395Z,3.70
2023-04-01T17:40:55.002Z,3.70
2023-04-01T17:44:20.404Z,3.70
2023-04-01T17:47:19.560Z,3.60
2023-04-01T17:50:48.008Z,3.70
2023-04-01T17:54:28.030Z,3.30
2023-04-01T17:57:45.059Z,3.80
2023-04-01T18:01:00.961Z,3.80
2023-04-01T18:04:24.738Z,2.90
2023-04-01T18:07:36.841Z,3.20
2023-04-01T18:10:50.998Z,2.90
2023-04-01T18:14:13.384Z,3.00
2023-04-01T18:17:28.266Z,2.60
2023-04-01T18:20:40.836Z,3.90
2023-04-01T18:24:01.586Z,2.70
2023-04-01T18:27:13.944Z,3.10
2023-04-01T18:30:15.962Z,2.90
2023-04-01T18:33:06.154Z,3.10
2023-04-01T18:36:39.723Z,3.20
2023-04-01T18:39:47.766Z,3.20
2023-04-01T18:42:51.074Z,3.40
2023-04-01T18:45:51.587Z,2.90
2023-04-01T18:48:58.810Z,2.80
2023-04-01T18:52:00.064Z,2.60
2023-04-01T18:55:05.711Z,3.50
2023-04-01T18:58:19.100Z,3.10
2023-04-01T19:01:49.875Z,3.80
2023-04-01T19:04:51.556Z,3.20
2023-04-01T19:07:42.602Z,2.90
2023-04-01T19:11:03.813Z,3.00
2023-04-01T19:14:28.922Z,3.30
2023-04-01T19:18:16.263Z,3.20
2023-04-01T19:21:31.356Z,3.00
2023-04-01T19:24:52.343Z,3.10
2023-04-01T19:27:46.370Z,4.00
2023-04-01T19:30:52.133Z,3.00
2023-04-01T19:34:19.781Z,2.70
2023-04-01T19:38:02.795Z,3.00
2023-04-01T19:41:20.344Z,3.20
2023-04-01T19:44:52.696Z,3.00
2023-04-01T19:48:39.725Z,3.20
2023-04-01T19:51:55.003Z,3.10
2023-04-01T19:55:22.194Z,2.40
2023-04-01T19:58:32.580Z,2.20
2023-04-01T20:01:45.108Z,2.60
2023-04-01T20:04:43.315Z,2.80
2023-04-01T20:07:44.577Z,3.10
2023-04-01T20:10:42.945Z,2.50
2023-04-01T20:13:48.319Z,2.60
2023-04-01T20:17:28.340Z,3.00
2023-04-01T20:20:27.637Z,2.80
2023-04-01T20:23:31.374Z,2.70
2023-04-01T20:26:33.648Z,2.60
2023-04-01T20:29:58.390Z,2.10
2023-04-01T20:33:32.880Z,2.70
2023-04-01T20:37:30.887Z,1.70
2023-04-01T20:40:48.000Z,2.20
2023-04-01T20:43:59.100Z,2.40
2023-04-01T20:47:31.157Z,2.00
2023-04-01T20:50:39.661Z,2.00
2023-04-01T20:53:35.893Z,1.90
2023-04-01T20:56:42.491Z,2.20
2023-04-01T21:00:08.637Z,1.90
2023-04-01T21:03:37.306Z,2.20
2023-04-01T21:06:50.300Z,2.40
2023-04-01T21:09:52.605Z,2.10
2023-04-01T21:12:51.503Z,2.10
2023-04-01T21:15:49.728Z,2.50
2023-04-01T21:18:58.815Z,2.40
2023-04-01T21:22:14.102Z,2.90
2023-04-01T21:25:23.545Z,3.00
2023-04-01T21:28:59.113Z,2.90
2023-04-01T21:32:15.099Z,2.30
2023-04-01T21:35:21.165Z,2.80
2023-04-01T21:39:05.511Z,2.80
2023-04-01T21:42:17.461Z,2.40
2023-04-01T21:46:02.660Z,2.50
2023-04-01T21:49:17.672Z,2.20
2023-04-01T21:53:07.372Z,2.60
2023-04-01T21:56:56.613Z,2.60
2023-04-01T22:00:11.882Z,2.90
2023-04-01T22:03:31.846Z,2.60
2023-04-01T22:06:46.153Z,2.60
2023-04-01T22:09:58.473Z,2.00
2023-04-01T22:19:54.820Z,2.00
2023-04-01T22:23:07.520Z,3.00
2023-04-01T22:26:34.141Z,2.70
2023-04-01T22:30:08.725Z,2.60
2023-04-01T22:33:18.997Z,2.80
2023-04-01T22:36:57.533Z,2.40
2023-04-01T22:39:51.890Z,2.70
2023-04-01T22:43:16.827Z,2.40
2023-04-01T22:46:23.576Z,2.40
2023-04-01T22:49:38.444Z,2.40
2023-04-01T22:52:45.951Z,2.80
2023-04-01T22:55:39.313Z,2.70
2023-04-01T22:58:58.742Z,2.70
2023-04-01T23:02:30.498Z,2.90
2023-04-01T23:05:21.971Z,2.60
2023-04-01T23:08:34.954Z,1.60
2023-04-01T23:11:44.736Z,2.10
2023-04-01T23:14:49.196Z,1.80
2023-04-01T23:18:10.326Z,1.60
2023-04-01T23:21:19.676Z,1.90
2023-04-01T23:24:27.882Z,1.80
2023-04-01T23:27:29.061Z,1.50
2023-04-01T23:30:39.907Z,1.80
2023-04-01T23:33:31.908Z,1.60
2023-04-01T23:36:20.012Z,1.80
2023-04-01T23:39:19.151Z,2.50
2023-04-01T23:42:28.845Z,1.80
2023-04-01T23:45:21.805Z,2.00
2023-04-01T23:48:16.999Z,2.00
2023-04-01T23:51:29.454Z,1.90
2023-04-01T23:54:32.838Z,1.80
2023-04-01T23:57:29.846Z,1.90
